sensor_id;sensor_type;location;lat;lon;timestamp;P1;durP1;ratioP1;P2;durP2;ratioP2
16792;SDS011;8513;42.662;23.350;2024-01-16T00:01:43;11.07;;;8.37;;
16792;SDS011;8513;42.662;23.350;2024-01-16T00:04:12;10.87;;;8.30;;
16792;SDS011;8513;42.662;23.350;2024-01-16T00:06:41;13.50;;;9.53;;
16792;SDS011;8513;42.662;23.350;2024-01-16T00:09:07;11.23;;;8.50;;
16792;SDS011;8513;42.662;23.350;2024-01-16T00:11:34;15.50;;;10.63;;
16792;SDS011;8513;42.662;23.350;2024-01-16T00:13:59;12.13;;;8.53;;
16792;SDS011;8513;42.662;23.350;2024-01-16T00:16:24;14.77;;;11.03;;
16792;SDS011;8513;42.662;23.350;2024-01-16T00:18:50;16.20;;;10.83;;
16792;SDS011;8513;42.662;23.350;2024-01-16T00:21:15;15.17;;;11.13;;
16792;SDS011;8513;42.662;23.350;2024-01-16T00:23:41;13.33;;;9.53;;
16792;SDS011;8513;42.662;23.350;2024-01-16T00:26:06;11.07;;;8.87;;
16792;SDS011;8513;42.662;23.350;2024-01-16T00:28:32;12.20;;;9.10;;
16792;SDS011;8513;42.662;23.350;2024-01-16T00:30:57;13.00;;;9.57;;
16792;SDS011;8513;42.662;23.350;2024-01-16T00:33:23;12.50;;;9.20;;
16792;SDS011;8513;42.662;23.350;2024-01-16T00:35:48;11.30;;;8.73;;
16792;SDS011;8513;42.662;23.350;2024-01-16T00:38:14;10.50;;;8.13;;
16792;SDS011;8513;42.662;23.350;2024-01-16T00:40:39;9.57;;;8.07;;
16792;SDS011;8513;42.662;23.350;2024-01-16T00:43:04;12.87;;;8.37;;
16792;SDS011;8513;42.662;23.350;2024-01-16T00:45:30;9.83;;;8.13;;
16792;SDS011;8513;42.662;23.350;2024-01-16T00:47:55;10.37;;;8.03;;
16792;SDS011;8513;42.662;23.350;2024-01-16T00:50:21;12.43;;;7.70;;
16792;SDS011;8513;42.662;23.350;2024-01-16T00:52:47;11.53;;;8.33;;
16792;SDS011;8513;42.662;23.350;2024-01-16T00:55:12;12.37;;;8.80;;
16792;SDS011;8513;42.662;23.350;2024-01-16T00:57:37;11.53;;;8.57;;
16792;SDS011;8513;42.662;23.350;2024-01-16T01:00:03;11.67;;;8.43;;
16792;SDS011;8513;42.662;23.350;2024-01-16T01:02:30;12.03;;;8.70;;
16792;SDS011;8513;42.662;23.350;2024-01-16T01:04:55;11.97;;;9.13;;
16792;SDS011;8513;42.662;23.350;2024-01-16T01:07:21;14.17;;;9.03;;
16792;SDS011;8513;42.662;23.350;2024-01-16T01:09:46;10.60;;;8.77;;
16792;SDS011;8513;42.662;23.350;2024-01-16T01:12:12;12.67;;;8.87;;
16792;SDS011;8513;42.662;23.350;2024-01-16T01:14:37;9.57;;;8.10;;
16792;SDS011;8513;42.662;23.350;2024-01-16T01:17:02;12.47;;;9.23;;
16792;SDS011;8513;42.662;23.350;2024-01-16T01:19:28;11.03;;;8.60;;
16792;SDS011;8513;42.662;23.350;2024-01-16T01:21:54;11.77;;;8.83;;
16792;SDS011;8513;42.662;23.350;2024-01-16T01:24:19;10.70;;;8.57;;
16792;SDS011;8513;42.662;23.350;2024-01-16T01:26:44;12.63;;;9.47;;
16792;SDS011;8513;42.662;23.350;2024-01-16T01:29:10;12.70;;;9.20;;
16792;SDS011;8513;42.662;23.350;2024-01-16T01:31:35;10.70;;;8.77;;
16792;SDS011;8513;42.662;23.350;2024-01-16T01:34:01;11.87;;;8.63;;
16792;SDS011;8513;42.662;23.350;2024-01-16T01:36:27;10.93;;;8.87;;
16792;SDS011;8513;42.662;23.350;2024-01-16T01:38:52;11.33;;;8.80;;
16792;SDS011;8513;42.662;23.350;2024-01-16T01:41:18;11.67;;;9.47;;
16792;SDS011;8513;42.662;23.350;2024-01-16T01:43:43;12.20;;;9.17;;
16792;SDS011;8513;42.662;23.350;2024-01-16T01:48:40;12.60;;;9.20;;
16792;SDS011;8513;42.662;23.350;2024-01-16T01:51:09;9.87;;;8.17;;
16792;SDS011;8513;42.662;23.350;2024-01-16T01:53:38;10.03;;;8.73;;
16792;SDS011;8513;42.662;23.350;2024-01-16T01:56:04;11.07;;;8.57;;
16792;SDS011;8513;42.662;23.350;2024-01-16T01:58:36;11.10;;;8.90;;
16792;SDS011;8513;42.662;23.350;2024-01-16T02:01:03;10.63;;;7.97;;
16792;SDS011;8513;42.662;23.350;2024-01-16T02:03:32;12.77;;;8.07;;
16792;SDS011;8513;42.662;23.350;2024-01-16T02:06:04;10.07;;;7.63;;
16792;SDS011;8513;42.662;23.350;2024-01-16T02:08:29;10.53;;;8.50;;
16792;SDS011;8513;42.662;23.350;2024-01-16T02:10:55;10.53;;;8.23;;
16792;SDS011;8513;42.662;23.350;2024-01-16T02:13:20;10.73;;;8.20;;
16792;SDS011;8513;42.662;23.350;2024-01-16T02:15:48;10.23;;;7.77;;
16792;SDS011;8513;42.662;23.350;2024-01-16T02:18:15;9.20;;;7.63;;
16792;SDS011;8513;42.662;23.350;2024-01-16T02:20:41;8.87;;;7.23;;
16792;SDS011;8513;42.662;23.350;2024-01-16T02:23:07;9.97;;;7.97;;
16792;SDS011;8513;42.662;23.350;2024-01-16T02:25:33;11.20;;;8.47;;
16792;SDS011;8513;42.662;23.350;2024-01-16T02:28:00;9.70;;;8.07;;
16792;SDS011;8513;42.662;23.350;2024-01-16T02:30:26;9.67;;;8.00;;
16792;SDS011;8513;42.662;23.350;2024-01-16T02:32:51;8.90;;;7.77;;
16792;SDS011;8513;42.662;23.350;2024-01-16T02:35:17;9.83;;;8.03;;
16792;SDS011;8513;42.662;23.350;2024-01-16T02:37:43;10.37;;;7.00;;
16792;SDS011;8513;42.662;23.350;2024-01-16T02:40:09;9.67;;;7.43;;
16792;SDS011;8513;42.662;23.350;2024-01-16T02:42:35;9.83;;;7.40;;
16792;SDS011;8513;42.662;23.350;2024-01-16T02:45:02;10.33;;;7.77;;
16792;SDS011;8513;42.662;23.350;2024-01-16T02:47:29;9.07;;;7.73;;
16792;SDS011;8513;42.662;23.350;2024-01-16T02:49:54;9.00;;;7.57;;
16792;SDS011;8513;42.662;23.350;2024-01-16T02:52:20;10.20;;;7.80;;
16792;SDS011;8513;42.662;23.350;2024-01-16T02:54:45;9.07;;;7.83;;
16792;SDS011;8513;42.662;23.350;2024-01-16T02:57:11;9.03;;;6.93;;
16792;SDS011;8513;42.662;23.350;2024-01-16T02:59:36;9.43;;;7.27;;
16792;SDS011;8513;42.662;23.350;2024-01-16T03:02:02;8.80;;;7.60;;
16792;SDS011;8513;42.662;23.350;2024-01-16T03:04:27;10.40;;;7.60;;
16792;SDS011;8513;42.662;23.350;2024-01-16T03:06:53;9.13;;;7.70;;
16792;SDS011;8513;42.662;23.350;2024-01-16T03:09:18;10.23;;;7.67;;
16792;SDS011;8513;42.662;23.350;2024-01-16T03:11:44;10.37;;;7.43;;
16792;SDS011;8513;42.662;23.350;2024-01-16T03:14:09;10.43;;;7.70;;
16792;SDS011;8513;42.662;23.350;2024-01-16T03:16:34;11.03;;;7.07;;
16792;SDS011;8513;42.662;23.350;2024-01-16T03:19:00;10.13;;;7.53;;
16792;SDS011;8513;42.662;23.350;2024-01-16T03:21:26;9.37;;;7.50;;
16792;SDS011;8513;42.662;23.350;2024-01-16T03:23:51;8.93;;;7.30;;
16792;SDS011;8513;42.662;23.350;2024-01-16T03:26:16;7.93;;;6.37;;
16792;SDS011;8513;42.662;23.350;2024-01-16T03:28:42;7.67;;;6.23;;
16792;SDS011;8513;42.662;23.350;2024-01-16T03:31:08;7.90;;;6.20;;
16792;SDS011;8513;42.662;23.350;2024-01-16T03:33:33;8.10;;;6.20;;
16792;SDS011;8513;42.662;23.350;2024-01-16T03:36:00;6.90;;;5.93;;
16792;SDS011;8513;42.662;23.350;2024-01-16T03:38:26;6.73;;;5.17;;
16792;SDS011;8513;42.662;23.350;2024-01-16T03:40:51;5.10;;;4.60;;
16792;SDS011;8513;42.662;23.350;2024-01-16T03:43:17;5.00;;;4.50;;
16792;SDS011;8513;42.662;23.350;2024-01-16T03:45:43;4.30;;;3.90;;
16792;SDS011;8513;42.662;23.350;2024-01-16T03:48:09;4.47;;;3.97;;
16792;SDS011;8513;42.662;23.350;2024-01-16T03:50:34;4.30;;;3.87;;
16792;SDS011;8513;42.662;23.350;2024-01-16T03:53:01;4.33;;;3.93;;
16792;SDS011;8513;42.662;23.350;2024-01-16T03:55:28;3.37;;;3.07;;
16792;SDS011;8513;42.662;23.350;2024-01-16T03:57:54;3.77;;;3.47;;
16792;SDS011;8513;42.662;23.350;2024-01-16T04:00:20;3.80;;;3.50;;
16792;SDS011;8513;42.662;23.350;2024-01-16T04:02:45;3.70;;;3.40;;
16792;SDS011;8513;42.662;23.350;2024-01-16T04:05:11;3.33;;;3.03;;
16792;SDS011;8513;42.662;23.350;2024-01-16T04:07:36;4.07;;;3.10;;
16792;SDS011;8513;42.662;23.350;2024-01-16T04:10:01;3.07;;;2.87;;
16792;SDS011;8513;42.662;23.350;2024-01-16T04:12:28;3.03;;;2.77;;
16792;SDS011;8513;42.662;23.350;2024-01-16T04:14:53;3.00;;;2.70;;
16792;SDS011;8513;42.662;23.350;2024-01-16T04:17:19;3.63;;;3.33;;
16792;SDS011;8513;42.662;23.350;2024-01-16T04:19:45;3.13;;;2.83;;
16792;SDS011;8513;42.662;23.350;2024-01-16T04:22:10;3.23;;;2.63;;
16792;SDS011;8513;42.662;23.350;2024-01-16T04:24:36;2.30;;;2.10;;
16792;SDS011;8513;42.662;23.350;2024-01-16T04:27:02;2.70;;;2.50;;
16792;SDS011;8513;42.662;23.350;2024-01-16T04:29:27;2.90;;;2.70;;
16792;SDS011;8513;42.662;23.350;2024-01-16T04:31:53;2.30;;;2.10;;
16792;SDS011;8513;42.662;23.350;2024-01-16T04:34:18;2.40;;;2.20;;
16792;SDS011;8513;42.662;23.350;2024-01-16T04:36:44;2.13;;;1.93;;
16792;SDS011;8513;42.662;23.350;2024-01-16T04:39:09;1.77;;;1.67;;
16792;SDS011;8513;42.662;23.350;2024-01-16T04:41:34;1.90;;;1.80;;
16792;SDS011;8513;42.662;23.350;2024-01-16T04:44:01;1.97;;;1.83;;
16792;SDS011;8513;42.662;23.350;2024-01-16T04:46:26;1.70;;;1.60;;
16792;SDS011;8513;42.662;23.350;2024-01-16T04:48:52;1.90;;;1.80;;
16792;SDS011;8513;42.662;23.350;2024-01-16T04:51:17;1.70;;;1.60;;
16792;SDS011;8513;42.662;23.350;2024-01-16T04:53:43;1.97;;;1.87;;
16792;SDS011;8513;42.662;23.350;2024-01-16T04:56:08;1.80;;;1.67;;
16792;SDS011;8513;42.662;23.350;2024-01-16T04:58:33;3.40;;;1.70;;
16792;SDS011;8513;42.662;23.350;2024-01-16T05:01:02;2.23;;;2.03;;
16792;SDS011;8513;42.662;23.350;2024-01-16T05:03:29;2.20;;;2.00;;
16792;SDS011;8513;42.662;23.350;2024-01-16T05:05:54;1.60;;;1.50;;
16792;SDS011;8513;42.662;23.350;2024-01-16T05:08:21;1.50;;;1.40;;
16792;SDS011;8513;42.662;23.350;2024-01-16T05:10:47;2.00;;;1.80;;
16792;SDS011;8513;42.662;23.350;2024-01-16T05:13:12;1.57;;;1.47;;
16792;SDS011;8513;42.662;23.350;2024-01-16T05:15:38;1.80;;;1.70;;
16792;SDS011;8513;42.662;23.350;2024-01-16T05:18:03;2.03;;;1.83;;
16792;SDS011;8513;42.662;23.350;2024-01-16T05:20:29;1.70;;;1.60;;
16792;SDS011;8513;42.662;23.350;2024-01-16T05:22:54;1.63;;;1.53;;
16792;SDS011;8513;42.662;23.350;2024-01-16T05:25:20;1.27;;;1.17;;
16792;SDS011;8513;42.662;23.350;2024-01-16T05:27:46;1.40;;;1.30;;
16792;SDS011;8513;42.662;23.350;2024-01-16T05:30:12;1.50;;;1.40;;
16792;SDS011;8513;42.662;23.350;2024-01-16T05:32:37;1.67;;;1.50;;
16792;SDS011;8513;42.662;23.350;2024-01-16T05:35:04;1.40;;;1.30;;
16792;SDS011;8513;42.662;23.350;2024-01-16T05:37:30;1.40;;;1.30;;
16792;SDS011;8513;42.662;23.350;2024-01-16T05:39:55;1.33;;;1.23;;
16792;SDS011;8513;42.662;23.350;2024-01-16T05:42:21;2.67;;;1.30;;
16792;SDS011;8513;42.662;23.350;2024-01-16T05:44:46;1.37;;;1.27;;
16792;SDS011;8513;42.662;23.350;2024-01-16T05:47:12;1.47;;;1.37;;
16792;SDS011;8513;42.662;23.350;2024-01-16T05:49:37;1.63;;;1.53;;
16792;SDS011;8513;42.662;23.350;2024-01-16T05:52:03;1.50;;;1.40;;
16792;SDS011;8513;42.662;23.350;2024-01-16T05:54:28;1.63;;;1.53;;
16792;SDS011;8513;42.662;23.350;2024-01-16T05:56:54;1.90;;;1.70;;
16792;SDS011;8513;42.662;23.350;2024-01-16T05:59:19;1.50;;;1.23;;
16792;SDS011;8513;42.662;23.350;2024-01-16T06:01:45;1.20;;;1.10;;
16792;SDS011;8513;42.662;23.350;2024-01-16T06:04:10;1.47;;;1.30;;
16792;SDS011;8513;42.662;23.350;2024-01-16T06:06:35;1.57;;;1.30;;
16792;SDS011;8513;42.662;23.350;2024-01-16T06:09:01;1.57;;;1.47;;
16792;SDS011;8513;42.662;23.350;2024-01-16T06:11:30;1.77;;;1.53;;
16792;SDS011;8513;42.662;23.350;2024-01-16T06:13:56;1.63;;;1.50;;
16792;SDS011;8513;42.662;23.350;2024-01-16T06:16:22;1.50;;;1.40;;
16792;SDS011;8513;42.662;23.350;2024-01-16T06:18:47;1.77;;;1.67;;
16792;SDS011;8513;42.662;23.350;2024-01-16T06:21:13;1.70;;;1.60;;
16792;SDS011;8513;42.662;23.350;2024-01-16T06:23:38;3.30;;;2.07;;
16792;SDS011;8513;42.662;23.350;2024-01-16T06:26:03;2.17;;;1.93;;
16792;SDS011;8513;42.662;23.350;2024-01-16T06:28:29;2.07;;;1.87;;
16792;SDS011;8513;42.662;23.350;2024-01-16T06:30:54;1.93;;;1.83;;
16792;SDS011;8513;42.662;23.350;2024-01-16T06:33:20;3.20;;;2.20;;
16792;SDS011;8513;42.662;23.350;2024-01-16T06:35:45;2.60;;;2.23;;
16792;SDS011;8513;42.662;23.350;2024-01-16T06:38:10;2.20;;;2.00;;
16792;SDS011;8513;42.662;23.350;2024-01-16T06:40:36;2.30;;;1.90;;
16792;SDS011;8513;42.662;23.350;2024-01-16T06:43:01;1.90;;;1.67;;
16792;SDS011;8513;42.662;23.350;2024-01-16T06:45:27;2.00;;;1.73;;
16792;SDS011;8513;42.662;23.350;2024-01-16T06:47:52;1.77;;;1.67;;
16792;SDS011;8513;42.662;23.350;2024-01-16T06:50:18;1.93;;;1.73;;
16792;SDS011;8513;42.662;23.350;2024-01-16T06:52:44;1.50;;;1.40;;
16792;SDS011;8513;42.662;23.350;2024-01-16T06:55:09;1.50;;;1.40;;
16792;SDS011;8513;42.662;23.350;2024-01-16T06:57:35;1.57;;;1.47;;
16792;SDS011;8513;42.662;23.350;2024-01-16T07:00:00;1.70;;;1.53;;
16792;SDS011;8513;42.662;23.350;2024-01-16T07:02:26;3.20;;;1.57;;
16792;SDS011;8513;42.662;23.350;2024-01-16T07:04:51;1.37;;;1.27;;
16792;SDS011;8513;42.662;23.350;2024-01-16T07:07:16;2.23;;;1.70;;
16792;SDS011;8513;42.662;23.350;2024-01-16T07:09:42;1.70;;;1.50;;
16792;SDS011;8513;42.662;23.350;2024-01-16T07:12:08;1.70;;;1.60;;
16792;SDS011;8513;42.662;23.350;2024-01-16T07:14:34;1.83;;;1.67;;
16792;SDS011;8513;42.662;23.350;2024-01-16T07:16:59;2.27;;;1.80;;
16792;SDS011;8513;42.662;23.350;2024-01-16T07:19:25;2.53;;;1.50;;
16792;SDS011;8513;42.662;23.350;2024-01-16T07:21:50;1.97;;;1.50;;
16792;SDS011;8513;42.662;23.350;2024-01-16T07:24:16;1.73;;;1.27;;
16792;SDS011;8513;42.662;23.350;2024-01-16T07:26:41;1.47;;;1.30;;
16792;SDS011;8513;42.662;23.350;2024-01-16T07:29:07;2.43;;;1.40;;
16792;SDS011;8513;42.662;23.350;2024-01-16T07:31:32;1.67;;;1.47;;
16792;SDS011;8513;42.662;23.350;2024-01-16T07:33:57;1.67;;;1.17;;
16792;SDS011;8513;42.662;23.350;2024-01-16T07:36:23;1.67;;;1.50;;
16792;SDS011;8513;42.662;23.350;2024-01-16T07:38:48;1.93;;;1.40;;
16792;SDS011;8513;42.662;23.350;2024-01-16T07:41:14;3.23;;;1.70;;
16792;SDS011;8513;42.662;23.350;2024-01-16T07:43:39;2.10;;;1.83;;
16792;SDS011;8513;42.662;23.350;2024-01-16T07:46:05;2.13;;;1.50;;
16792;SDS011;8513;42.662;23.350;2024-01-16T07:48:30;1.60;;;1.47;;
16792;SDS011;8513;42.662;23.350;2024-01-16T07:50:56;1.80;;;1.60;;
16792;SDS011;8513;42.662;23.350;2024-01-16T07:53:21;2.97;;;1.93;;
16792;SDS011;8513;42.662;23.350;2024-01-16T07:55:46;2.60;;;1.77;;
16792;SDS011;8513;42.662;23.350;2024-01-16T07:58:12;2.20;;;1.47;;
16792;SDS011;8513;42.662;23.350;2024-01-16T08:00:39;1.80;;;1.40;;
16792;SDS011;8513;42.662;23.350;2024-01-16T08:03:07;1.30;;;1.20;;
16792;SDS011;8513;42.662;23.350;2024-01-16T08:05:33;1.43;;;1.30;;
16792;SDS011;8513;42.662;23.350;2024-01-16T08:07:59;1.97;;;1.60;;
16792;SDS011;8513;42.662;23.350;2024-01-16T08:10:24;3.27;;;2.40;;
16792;SDS011;8513;42.662;23.350;2024-01-16T08:12:50;2.27;;;1.90;;
16792;SDS011;8513;42.662;23.350;2024-01-16T08:15:15;2.10;;;1.87;;
16792;SDS011;8513;42.662;23.350;2024-01-16T08:17:41;2.70;;;2.20;;
16792;SDS011;8513;42.662;23.350;2024-01-16T08:20:06;2.00;;;1.80;;
16792;SDS011;8513;42.662;23.350;2024-01-16T08:22:35;2.90;;;2.07;;
16792;SDS011;8513;42.662;23.350;2024-01-16T08:25:01;2.43;;;1.80;;
16792;SDS011;8513;42.662;23.350;2024-01-16T08:27:29;3.30;;;1.90;;
16792;SDS011;8513;42.662;23.350;2024-01-16T08:29:55;1.60;;;1.50;;
16792;SDS011;8513;42.662;23.350;2024-01-16T08:32:21;2.17;;;1.80;;
16792;SDS011;8513;42.662;23.350;2024-01-16T08:34:46;3.00;;;1.80;;
16792;SDS011;8513;42.662;23.350;2024-01-16T08:37:12;2.10;;;1.90;;
16792;SDS011;8513;42.662;23.350;2024-01-16T08:39:37;2.33;;;2.07;;
16792;SDS011;8513;42.662;23.350;2024-01-16T08:42:03;2.20;;;2.00;;
16792;SDS011;8513;42.662;23.350;2024-01-16T08:44:29;2.60;;;2.40;;
16792;SDS011;8513;42.662;23.350;2024-01-16T08:46:54;2.30;;;2.10;;
16792;SDS011;8513;42.662;23.350;2024-01-16T08:49:20;3.20;;;2.30;;
16792;SDS011;8513;42.662;23.350;2024-01-16T08:51:45;2.43;;;2.03;;
16792;SDS011;8513;42.662;23.350;2024-01-16T08:54:11;5.37;;;1.73;;
16792;SDS011;8513;42.662;23.350;2024-01-16T08:56:37;2.00;;;1.80;;
16792;SDS011;8513;42.662;23.350;2024-01-16T08:59:02;1.60;;;1.50;;
16792;SDS011;8513;42.662;23.350;2024-01-16T09:01:27;1.60;;;1.50;;
16792;SDS011;8513;42.662;23.350;2024-01-16T09:03:53;1.87;;;1.70;;
16792;SDS011;8513;42.662;23.350;2024-01-16T09:06:18;1.40;;;1.30;;
16792;SDS011;8513;42.662;23.350;2024-01-16T09:08:44;2.50;;;1.20;;
16792;SDS011;8513;42.662;23.350;2024-01-16T09:11:09;1.60;;;1.30;;
16792;SDS011;8513;42.662;23.350;2024-01-16T09:13:36;1.27;;;1.17;;
16792;SDS011;8513;42.662;23.350;2024-01-16T09:16:02;1.60;;;1.50;;
16792;SDS011;8513;42.662;23.350;2024-01-16T09:18:28;1.40;;;1.30;;
16792;SDS011;8513;42.662;23.350;2024-01-16T09:20:53;1.83;;;1.53;;
16792;SDS011;8513;42.662;23.350;2024-01-16T09:23:20;1.67;;;1.57;;
16792;SDS011;8513;42.662;23.350;2024-01-16T09:25:45;1.73;;;1.40;;
16792;SDS011;8513;42.662;23.350;2024-01-16T09:28:10;2.00;;;1.60;;
16792;SDS011;8513;42.662;23.350;2024-01-16T09:30:37;1.70;;;1.60;;
16792;SDS011;8513;42.662;23.350;2024-01-16T09:33:03;1.57;;;1.47;;
16792;SDS011;8513;42.662;23.350;2024-01-16T09:35:31;1.57;;;1.47;;
16792;SDS011;8513;42.662;23.350;2024-01-16T09:37:57;1.97;;;1.77;;
16792;SDS011;8513;42.662;23.350;2024-01-16T09:40:24;2.20;;;1.90;;
16792;SDS011;8513;42.662;23.350;2024-01-16T09:42:50;3.20;;;1.80;;
16792;SDS011;8513;42.662;23.350;2024-01-16T09:45:19;3.00;;;1.60;;
16792;SDS011;8513;42.662;23.350;2024-01-16T09:47:45;1.93;;;1.70;;
16792;SDS011;8513;42.662;23.350;2024-01-16T09:50:12;1.80;;;1.50;;
16792;SDS011;8513;42.662;23.350;2024-01-16T09:52:41;1.83;;;1.70;;
16792;SDS011;8513;42.662;23.350;2024-01-16T09:55:07;1.63;;;1.40;;
16792;SDS011;8513;42.662;23.350;2024-01-16T09:57:39;4.77;;;1.70;;
16792;SDS011;8513;42.662;23.350;2024-01-16T10:00:07;1.90;;;1.63;;
16792;SDS011;8513;42.662;23.350;2024-01-16T10:02:39;4.20;;;1.50;;
16792;SDS011;8513;42.662;23.350;2024-01-16T10:05:06;3.67;;;1.50;;
16792;SDS011;8513;42.662;23.350;2024-01-16T10:07:39;1.70;;;1.60;;
16792;SDS011;8513;42.662;23.350;2024-01-16T10:10:06;5.60;;;2.00;;
16792;SDS011;8513;42.662;23.350;2024-01-16T10:12:36;2.77;;;2.00;;
16792;SDS011;8513;42.662;23.350;2024-01-16T10:15:02;1.97;;;1.77;;
16792;SDS011;8513;42.662;23.350;2024-01-16T10:17:40;1.60;;;1.50;;
16792;SDS011;8513;42.662;23.350;2024-01-16T10:20:10;4.47;;;2.00;;
16792;SDS011;8513;42.662;23.350;2024-01-16T10:22:41;3.57;;;1.57;;
16792;SDS011;8513;42.662;23.350;2024-01-16T10:25:18;1.97;;;1.77;;
16792;SDS011;8513;42.662;23.350;2024-01-16T10:27:45;2.00;;;1.37;;
16792;SDS011;8513;42.662;23.350;2024-01-16T10:30:11;6.40;;;2.00;;
16792;SDS011;8513;42.662;23.350;2024-01-16T10:32:38;2.27;;;1.67;;
16792;SDS011;8513;42.662;23.350;2024-01-16T10:35:06;3.53;;;2.27;;
16792;SDS011;8513;42.662;23.350;2024-01-16T10:37:49;3.50;;;2.00;;
16792;SDS011;8513;42.662;23.350;2024-01-16T10:40:16;2.17;;;1.97;;
16792;SDS011;8513;42.662;23.350;2024-01-16T10:42:43;1.90;;;1.50;;
16792;SDS011;8513;42.662;23.350;2024-01-16T10:45:21;2.67;;;1.80;;
16792;SDS011;8513;42.662;23.350;2024-01-16T10:47:47;2.43;;;1.90;;
16792;SDS011;8513;42.662;23.350;2024-01-16T10:50:14;3.33;;;1.90;;
16792;SDS011;8513;42.662;23.350;2024-01-16T10:52:47;3.27;;;1.57;;
16792;SDS011;8513;42.662;23.350;2024-01-16T10:55:19;2.20;;;1.80;;
16792;SDS011;8513;42.662;23.350;2024-01-16T10:57:48;1.73;;;1.60;;
16792;SDS011;8513;42.662;23.350;2024-01-16T11:00:14;1.90;;;1.43;;
16792;SDS011;8513;42.662;23.350;2024-01-16T11:02:48;3.63;;;1.60;;
16792;SDS011;8513;42.662;23.350;2024-01-16T11:05:17;2.33;;;1.97;;
16792;SDS011;8513;42.662;23.350;2024-01-16T11:07:43;4.33;;;1.77;;
16792;SDS011;8513;42.662;23.350;2024-01-16T11:10:10;3.33;;;1.67;;
16792;SDS011;8513;42.662;23.350;2024-01-16T11:12:37;2.30;;;1.53;;
16792;SDS011;8513;42.662;23.350;2024-01-16T11:15:05;2.63;;;2.20;;
16792;SDS011;8513;42.662;23.350;2024-01-16T11:17:33;3.00;;;2.30;;
16792;SDS011;8513;42.662;23.350;2024-01-16T11:20:02;4.80;;;2.40;;
16792;SDS011;8513;42.662;23.350;2024-01-16T11:22:43;3.70;;;2.50;;
16792;SDS011;8513;42.662;23.350;2024-01-16T11:25:10;3.27;;;2.57;;
16792;SDS011;8513;42.662;23.350;2024-01-16T11:27:37;6.20;;;2.40;;
16792;SDS011;8513;42.662;23.350;2024-01-16T11:30:05;3.03;;;2.63;;
16792;SDS011;8513;42.662;23.350;2024-01-16T11:32:38;2.43;;;2.23;;
16792;SDS011;8513;42.662;23.350;2024-01-16T11:35:08;3.30;;;2.27;;
16792;SDS011;8513;42.662;23.350;2024-01-16T11:37:35;4.53;;;2.17;;
16792;SDS011;8513;42.662;23.350;2024-01-16T11:42:49;3.67;;;1.97;;
16792;SDS011;8513;42.662;23.350;2024-01-16T11:50:33;3.27;;;2.30;;
16792;SDS011;8513;42.662;23.350;2024-01-16T11:52:58;3.93;;;2.33;;
16792;SDS011;8513;42.662;23.350;2024-01-16T11:55:24;4.47;;;2.70;;
16792;SDS011;8513;42.662;23.350;2024-01-16T12:00:30;4.23;;;3.30;;
16792;SDS011;8513;42.662;23.350;2024-01-16T12:03:03;2.90;;;2.63;;
16792;SDS011;8513;42.662;23.350;2024-01-16T12:05:30;4.20;;;3.20;;
16792;SDS011;8513;42.662;23.350;2024-01-16T12:07:55;8.80;;;4.83;;
16792;SDS011;8513;42.662;23.350;2024-01-16T12:10:21;4.07;;;3.07;;
16792;SDS011;8513;42.662;23.350;2024-01-16T12:12:48;4.43;;;2.83;;
16792;SDS011;8513;42.662;23.350;2024-01-16T12:15:19;3.23;;;2.90;;
16792;SDS011;8513;42.662;23.350;2024-01-16T12:17:55;4.10;;;2.53;;
16792;SDS011;8513;42.662;23.350;2024-01-16T12:20:25;2.33;;;2.13;;
16792;SDS011;8513;42.662;23.350;2024-01-16T12:22:56;4.77;;;2.30;;
16792;SDS011;8513;42.662;23.350;2024-01-16T12:25:22;4.47;;;2.17;;
16792;SDS011;8513;42.662;23.350;2024-01-16T12:27:55;3.80;;;2.30;;
16792;SDS011;8513;42.662;23.350;2024-01-16T12:30:23;4.63;;;2.50;;
16792;SDS011;8513;42.662;23.350;2024-01-16T12:32:50;2.90;;;2.43;;
16792;SDS011;8513;42.662;23.350;2024-01-16T12:35:21;4.70;;;2.30;;
16792;SDS011;8513;42.662;23.350;2024-01-16T12:37:59;2.70;;;2.17;;
16792;SDS011;8513;42.662;23.350;2024-01-16T12:40:36;5.17;;;2.70;;
16792;SDS011;8513;42.662;23.350;2024-01-16T12:43:04;7.37;;;4.63;;
16792;SDS011;8513;42.662;23.350;2024-01-16T12:45:30;2.53;;;1.63;;
16792;SDS011;8513;42.662;23.350;2024-01-16T12:47:56;2.20;;;2.00;;
16792;SDS011;8513;42.662;23.350;2024-01-16T12:50:28;3.23;;;2.03;;
16792;SDS011;8513;42.662;23.350;2024-01-16T12:55:29;3.47;;;2.30;;
16792;SDS011;8513;42.662;23.350;2024-01-16T12:58:14;3.43;;;2.30;;
16792;SDS011;8513;42.662;23.350;2024-01-16T13:00:40;4.57;;;2.10;;
16792;SDS011;8513;42.662;23.350;2024-01-16T13:03:06;3.43;;;2.37;;
16792;SDS011;8513;42.662;23.350;2024-01-16T13:05:32;4.30;;;2.30;;
16792;SDS011;8513;42.662;23.350;2024-01-16T13:08:00;3.00;;;2.53;;
16792;SDS011;8513;42.662;23.350;2024-01-16T13:10:29;3.43;;;2.70;;
16792;SDS011;8513;42.662;23.350;2024-01-16T13:13:17;4.10;;;2.60;;
16792;SDS011;8513;42.662;23.350;2024-01-16T13:15:47;3.50;;;2.20;;
16792;SDS011;8513;42.662;23.350;2024-01-16T13:18:20;3.40;;;2.17;;
16792;SDS011;8513;42.662;23.350;2024-01-16T13:20:47;5.20;;;2.70;;
16792;SDS011;8513;42.662;23.350;2024-01-16T13:23:15;2.93;;;2.50;;
16792;SDS011;8513;42.662;23.350;2024-01-16T13:25:45;2.53;;;2.20;;
16792;SDS011;8513;42.662;23.350;2024-01-16T13:28:12;3.50;;;2.40;;
16792;SDS011;8513;42.662;23.350;2024-01-16T13:30:42;4.47;;;2.40;;
16792;SDS011;8513;42.662;23.350;2024-01-16T13:33:08;3.17;;;2.40;;
16792;SDS011;8513;42.662;23.350;2024-01-16T13:35:34;3.37;;;2.50;;
16792;SDS011;8513;42.662;23.350;2024-01-16T13:38:01;3.40;;;2.73;;
16792;SDS011;8513;42.662;23.350;2024-01-16T13:40:26;4.37;;;2.90;;
16792;SDS011;8513;42.662;23.350;2024-01-16T13:42:52;3.13;;;2.50;;
16792;SDS011;8513;42.662;23.350;2024-01-16T13:45:17;3.47;;;2.83;;
16792;SDS011;8513;42.662;23.350;2024-01-16T13:47:43;3.63;;;2.57;;
16792;SDS011;8513;42.662;23.350;2024-01-16T13:50:09;3.47;;;2.50;;
16792;SDS011;8513;42.662;23.350;2024-01-16T13:52:38;3.53;;;2.83;;
16792;SDS011;8513;42.662;23.350;2024-01-16T13:55:05;3.27;;;2.43;;
16792;SDS011;8513;42.662;23.350;2024-01-16T13:57:31;2.83;;;2.50;;
16792;SDS011;8513;42.662;23.350;2024-01-16T13:59:57;4.03;;;2.67;;
16792;SDS011;8513;42.662;23.350;2024-01-16T14:02:23;3.43;;;2.50;;
16792;SDS011;8513;42.662;23.350;2024-01-16T14:04:49;3.37;;;2.53;;
16792;SDS011;8513;42.662;23.350;2024-01-16T14:07:15;2.77;;;2.30;;
16792;SDS011;8513;42.662;23.350;2024-01-16T14:09:41;2.77;;;2.30;;
16792;SDS011;8513;42.662;23.350;2024-01-16T14:12:07;3.43;;;2.40;;
16792;SDS011;8513;42.662;23.350;2024-01-16T14:14:33;2.77;;;2.30;;
16792;SDS011;8513;42.662;23.350;2024-01-16T14:16:59;3.50;;;2.57;;
16792;SDS011;8513;42.662;23.350;2024-01-16T14:19:25;2.70;;;2.30;;
16792;SDS011;8513;42.662;23.350;2024-01-16T14:21:52;3.10;;;2.20;;
16792;SDS011;8513;42.662;23.350;2024-01-16T14:24:17;4.40;;;2.23;;
16792;SDS011;8513;42.662;23.350;2024-01-16T14:26:43;3.17;;;2.07;;
16792;SDS011;8513;42.662;23.350;2024-01-16T14:29:09;3.10;;;1.93;;
16792;SDS011;8513;42.662;23.350;2024-01-16T14:31:35;4.37;;;2.63;;
16792;SDS011;8513;42.662;23.350;2024-01-16T14:34:01;4.30;;;2.50;;
16792;SDS011;8513;42.662;23.350;2024-01-16T14:36:26;3.97;;;2.30;;
16792;SDS011;8513;42.662;23.350;2024-01-16T14:38:52;3.73;;;2.23;;
16792;SDS011;8513;42.662;23.350;2024-01-16T14:41:17;6.23;;;2.50;;
16792;SDS011;8513;42.662;23.350;2024-01-16T14:43:43;2.93;;;2.23;;
16792;SDS011;8513;42.662;23.350;2024-01-16T14:46:08;4.50;;;2.50;;
16792;SDS011;8513;42.662;23.350;2024-01-16T14:48:37;3.00;;;2.30;;
16792;SDS011;8513;42.662;23.350;2024-01-16T14:51:08;4.90;;;2.50;;
16792;SDS011;8513;42.662;23.350;2024-01-16T14:53:35;3.90;;;2.87;;
16792;SDS011;8513;42.662;23.350;2024-01-16T14:56:01;5.53;;;2.70;;
16792;SDS011;8513;42.662;23.350;2024-01-16T14:58:27;4.73;;;2.70;;